Elmwood, NE (68349)

6:23 PM CST on February 06, 2016 (GMT -0600)
274th & Fletcher Ave | | Change Station
CLOSE
Current Station
Personal Weather Station
Location: Elmwood, NE
Elevation: 1290 ft
Nearby Weather Stations

Elev 1290 ft 40.87 °N, 96.33 °W | Updated 9 seconds ago

Partly Cloudy
Partly Cloudy
39.0 °F
Feels Like 39 °F
N
0.0
Wind Variable Wind from South
Gusts 0.0 mph

Today
High -- | Low -- °F
--% Chance of Precip.
Yesterday
High -- | Low -- °F
Precip. -- in
Pressure 30.03 in
Visibility 10.0 miles
Clouds Clear
Windchill 39 °F
Dew Point 30 °F
Humidity 70%
Rainfall 0.00 in
Snow Depth Not available.
7:30 AM 5:48 PM
Waning Crescent, 3% visible
METAR KPMV 070015Z AUTO 18013KT 10SM CLR 03/M01 A3003 RMK AO2 T00271010
Pressure 30.03 in
Visibility 10.0 miles
Clouds Clear
Windchill 39 °F
Dew Point 30 °F
Humidity 70%
Rainfall 0.00 in
Snow Depth Not available.
7:30 AM 5:48 PM
Waning Crescent, 3% visible
METAR KPMV 070015Z AUTO 18013KT 10SM CLR 03/M01 A3003 RMK AO2 T00271010

10-Day Weather Forecast

Almanac

Astronomy

Feb. 06, 2016 Rise Set
Actual Time
Civil Twilight
Nautical Twilight
Astronomical Twilight
Moon
Length of Visible Light
Length of Day
Tomorrow will be .
, % of the Moon is Illuminated

Today's Extremes

State Highs State Lows

Community

WunderPhotos

Upload Photos

1,891,106 photos uploaded!

WunderBlog® & News

Nearby

Air Quality

  Air Quality AQ Index Pollutant
Not available.

Snow Depth

Station Depth Elevation

Earthquake Activity

City Distance Mag. Time & Date
Minimum magnitude displayed is 2.5.

Coastal Water Temperatures

Place Temperature

Stations

Nearby Weather Stations

Station Location Temp. Windchill Dew Point Humidity Wind Precip. Elev Updated Type
                   

Watches & Warnings

There are currently no watches in effect.